sensor_id;sensor_type;location;lat;lon;timestamp;pressure;altitude;pressure_sealevel;temperature;humidity
70521;BME280;58442;52.716;23.560;2023-02-18T00:00:01;99870.85;;;8.32;81.08
70521;BME280;58442;52.716;23.560;2023-02-18T00:02:03;99878.52;;;8.30;81.15
70521;BME280;58442;52.716;23.560;2023-02-18T00:04:05;99872.32;;;8.30;81.06
70521;BME280;58442;52.716;23.560;2023-02-18T00:06:21;99879.24;;;8.27;80.89
70521;BME280;58442;52.716;23.560;2023-02-18T00:08:23;99872.16;;;8.22;80.83
70521;BME280;58442;52.716;23.560;2023-02-18T00:10:24;99888.77;;;8.21;80.86
70521;BME280;58442;52.716;23.560;2023-02-18T00:12:26;99883.36;;;8.21;80.83
70521;BME280;58442;52.716;23.560;2023-02-18T00:14:28;99890.70;;;8.20;80.73
70521;BME280;58442;52.716;23.560;2023-02-18T00:16:30;99890.70;;;8.20;80.63
70521;BME280;58442;52.716;23.560;2023-02-18T00:18:32;99891.05;;;8.19;80.59
70521;BME280;58442;52.716;23.560;2023-02-18T00:20:33;99898.03;;;8.20;80.51
70521;BME280;58442;52.716;23.560;2023-02-18T00:22:43;99908.43;;;8.18;80.36
70521;BME280;58442;52.716;23.560;2023-02-18T00:24:45;99904.16;;;8.17;80.12
70521;BME280;58442;52.716;23.560;2023-02-18T00:26:49;99909.57;;;8.17;79.94
70521;BME280;58442;52.716;23.560;2023-02-18T00:28:51;99907.55;;;8.14;79.87
70521;BME280;58442;52.716;23.560;2023-02-18T00:30:58;99903.63;;;8.11;79.61
70521;BME280;58442;52.716;23.560;2023-02-18T00:33:00;99897.34;;;8.07;79.50
70521;BME280;58442;52.716;23.560;2023-02-18T00:35:01;99913.14;;;8.05;79.48
70521;BME280;58442;52.716;23.560;2023-02-18T00:37:03;99920.02;;;8.03;79.38
70521;BME280;58442;52.716;23.560;2023-02-18T00:39:13;99926.94;;;8.00;79.12
70521;BME280;58442;52.716;23.560;2023-02-18T00:41:15;99936.09;;;7.95;79.02
70521;BME280;58442;52.716;23.560;2023-02-18T00:43:17;99953.39;;;7.91;78.80
70521;BME280;58442;52.716;23.560;2023-02-18T00:45:18;99936.98;;;7.84;78.77
70521;BME280;58442;52.716;23.560;2023-02-18T00:47:28;99934.41;;;7.75;78.70
70521;BME280;58442;52.716;23.560;2023-02-18T00:49:29;99936.61;;;7.70;78.76
70521;BME280;58442;52.716;23.560;2023-02-18T00:51:32;99931.80;;;7.63;78.68
70521;BME280;58442;52.716;23.560;2023-02-18T00:53:34;99935.54;;;7.58;78.64
70521;BME280;58442;52.716;23.560;2023-02-18T00:55:44;99935.78;;;7.53;78.74
70521;BME280;58442;52.716;23.560;2023-02-18T00:57:47;99937.63;;;7.49;78.80
70521;BME280;58442;52.716;23.560;2023-02-18T00:59:49;99940.58;;;7.44;78.86
70521;BME280;58442;52.716;23.560;2023-02-18T01:01:50;99938.22;;;7.43;78.87
70521;BME280;58442;52.716;23.560;2023-02-18T01:03:58;99943.52;;;7.39;78.91
70521;BME280;58442;52.716;23.560;2023-02-18T01:05:59;99940.38;;;7.37;78.89
70521;BME280;58442;52.716;23.560;2023-02-18T01:08:01;99938.36;;;7.34;78.88
70521;BME280;58442;52.716;23.560;2023-02-18T01:10:03;99933.65;;;7.31;78.94
70521;BME280;58442;52.716;23.560;2023-02-18T01:12:13;99923.54;;;7.28;78.91
70521;BME280;58442;52.716;23.560;2023-02-18T01:14:14;99916.11;;;7.25;78.90
70521;BME280;58442;52.716;23.560;2023-02-18T01:16:15;99917.59;;;7.22;78.83
70521;BME280;58442;52.716;23.560;2023-02-18T01:18:18;99927.15;;;7.20;78.87
70521;BME280;58442;52.716;23.560;2023-02-18T01:20:28;99925.94;;;7.17;78.89
70521;BME280;58442;52.716;23.560;2023-02-18T01:22:29;99915.02;;;7.13;78.87
70521;BME280;58442;52.716;23.560;2023-02-18T01:24:31;99912.66;;;7.12;78.83
70521;BME280;58442;52.716;23.560;2023-02-18T01:26:32;99903.34;;;7.09;78.80
70521;BME280;58442;52.716;23.560;2023-02-18T01:28:42;99914.49;;;7.08;78.75
70521;BME280;58442;52.716;23.560;2023-02-18T01:30:44;99913.26;;;7.05;78.50
70521;BME280;58442;52.716;23.560;2023-02-18T01:32:45;99906.28;;;7.04;78.42
70521;BME280;58442;52.716;23.560;2023-02-18T01:34:47;99910.11;;;7.03;78.29
70521;BME280;58442;52.716;23.560;2023-02-18T01:36:57;99905.06;;;7.02;77.95
70521;BME280;58442;52.716;23.560;2023-02-18T01:38:59;99913.52;;;7.00;77.93
70521;BME280;58442;52.716;23.560;2023-02-18T01:41:00;99902.25;;;6.98;77.75
70521;BME280;58442;52.716;23.560;2023-02-18T01:43:02;99907.99;;;6.97;77.65
70521;BME280;58442;52.716;23.560;2023-02-18T01:47:33;99908.59;;;6.90;77.21
70521;BME280;58442;52.716;23.560;2023-02-18T01:49:36;99900.71;;;6.85;76.94
70521;BME280;58442;52.716;23.560;2023-02-18T01:51:42;99914.48;;;6.80;76.99
70521;BME280;58442;52.716;23.560;2023-02-18T01:55:58;99917.84;;;6.77;76.99
70521;BME280;58442;52.716;23.560;2023-02-18T01:58:10;99907.05;;;6.77;76.77
70521;BME280;58442;52.716;23.560;2023-02-18T02:00:16;99910.52;;;6.77;76.50
70521;BME280;58442;52.716;23.560;2023-02-18T02:02:24;99903.21;;;6.78;76.36
70521;BME280;58442;52.716;23.560;2023-02-18T02:04:26;99895.89;;;6.78;76.28
70521;BME280;58442;52.716;23.560;2023-02-18T02:06:28;99906.70;;;6.78;76.13
70521;BME280;58442;52.716;23.560;2023-02-18T02:08:29;99891.98;;;6.76;75.77
70521;BME280;58442;52.716;23.560;2023-02-18T02:39:07;99882.99;;;7.00;74.21
70521;BME280;58442;52.716;23.560;2023-02-18T02:48:07;99877.70;;;7.03;73.89
70521;BME280;58442;52.716;23.560;2023-02-18T02:52:31;99876.91;;;7.03;73.77
70521;BME280;58442;52.716;23.560;2023-02-18T02:54:44;99886.15;;;7.02;73.68
70521;BME280;58442;52.716;23.560;2023-02-18T02:56:45;99872.99;;;7.00;73.61
70521;BME280;58442;52.716;23.560;2023-02-18T02:58:59;99872.17;;;7.00;73.58
70521;BME280;58442;52.716;23.560;2023-02-18T03:03:26;99872.17;;;7.00;73.37
70521;BME280;58442;52.716;23.560;2023-02-18T03:19:34;99876.02;;;6.99;72.64
70521;BME280;58442;52.716;23.560;2023-02-18T03:23:58;99893.71;;;6.96;72.14
70521;BME280;58442;52.716;23.560;2023-02-18T03:26:03;99880.55;;;6.95;72.18
70521;BME280;58442;52.716;23.560;2023-02-18T03:28:13;99876.29;;;6.94;72.10
70521;BME280;58442;52.716;23.560;2023-02-18T03:30:26;99895.19;;;6.94;72.01
70521;BME280;58442;52.716;23.560;2023-02-18T03:32:30;99885.96;;;6.95;71.88
70521;BME280;58442;52.716;23.560;2023-02-18T03:34:40;99887.88;;;6.94;71.84
70521;BME280;58442;52.716;23.560;2023-02-18T03:36:44;99892.49;;;6.94;71.61
70521;BME280;58442;52.716;23.560;2023-02-18T03:40:59;99883.14;;;6.91;71.45
70521;BME280;58442;52.716;23.560;2023-02-18T03:43:01;99883.14;;;6.91;71.06
70521;BME280;58442;52.716;23.560;2023-02-18T03:45:03;99881.57;;;6.90;71.22
70521;BME280;58442;52.716;23.560;2023-02-18T03:47:04;99870.77;;;6.90;71.25
70521;BME280;58442;52.716;23.560;2023-02-18T03:49:14;99880.01;;;6.89;71.19
70521;BME280;58442;52.716;23.560;2023-02-18T03:51:16;99878.09;;;6.90;70.91
70521;BME280;58442;52.716;23.560;2023-02-18T03:53:17;99880.01;;;6.89;70.98
70521;BME280;58442;52.716;23.560;2023-02-18T03:55:18;99877.30;;;6.89;71.00
70521;BME280;58442;52.716;23.560;2023-02-18T03:57:29;99873.47;;;6.90;70.76
70521;BME280;58442;52.716;23.560;2023-02-18T03:59:31;99868.06;;;6.90;70.63
70521;BME280;58442;52.716;23.560;2023-02-18T04:01:32;99876.52;;;6.89;70.65
70521;BME280;58442;52.716;23.560;2023-02-18T04:03:33;99871.91;;;6.89;70.62
70521;BME280;58442;52.716;23.560;2023-02-18T04:05:44;99869.98;;;6.90;70.51
70521;BME280;58442;52.716;23.560;2023-02-18T04:07:45;99873.82;;;6.89;70.30
70521;BME280;58442;52.716;23.560;2023-02-18T04:09:47;99880.35;;;6.88;70.24
70521;BME280;58442;52.716;23.560;2023-02-18T04:11:48;99876.52;;;6.89;70.25
70521;BME280;58442;52.716;23.560;2023-02-18T04:13:59;99877.97;;;6.86;70.02
70521;BME280;58442;52.716;23.560;2023-02-18T04:16:00;99881.80;;;6.85;69.89
70521;BME280;58442;52.716;23.560;2023-02-18T04:18:02;99869.88;;;6.86;69.92
70521;BME280;58442;52.716;23.560;2023-02-18T04:20:04;99889.91;;;6.85;69.92
70521;BME280;58442;52.716;23.560;2023-02-18T04:22:14;99887.12;;;6.81;69.92
70521;BME280;58442;52.716;23.560;2023-02-18T04:24:15;99877.89;;;6.82;69.95
70521;BME280;58442;52.716;23.560;2023-02-18T04:26:17;99889.83;;;6.81;69.65
70521;BME280;58442;52.716;23.560;2023-02-18T04:28:18;99896.01;;;6.82;69.77
70521;BME280;58442;52.716;23.560;2023-02-18T04:30:29;99893.66;;;6.80;69.61
70521;BME280;58442;52.716;23.560;2023-02-18T04:32:30;99914.80;;;6.78;69.64
70521;BME280;58442;52.716;23.560;2023-02-18T04:34:31;99908.61;;;6.78;69.55
70521;BME280;58442;52.716;23.560;2023-02-18T04:36:33;99915.14;;;6.77;69.64
70521;BME280;58442;52.716;23.560;2023-02-18T04:38:44;99924.38;;;6.76;69.66
70521;BME280;58442;52.716;23.560;2023-02-18T04:40:46;99913.58;;;6.76;69.61
70521;BME280;58442;52.716;23.560;2023-02-18T04:42:47;99909.65;;;6.73;69.48
70521;BME280;58442;52.716;23.560;2023-02-18T04:44:48;99916.97;;;6.73;69.60
70521;BME280;58442;52.716;23.560;2023-02-18T04:46:59;99908.41;;;6.71;69.66
70521;BME280;58442;52.716;23.560;2023-02-18T04:49:00;99901.44;;;6.70;69.49
70521;BME280;58442;52.716;23.560;2023-02-18T04:51:02;99895.60;;;6.68;69.54
70521;BME280;58442;52.716;23.560;2023-02-18T04:53:03;99905.96;;;6.66;69.49
70521;BME280;58442;52.716;23.560;2023-02-18T04:55:14;99907.06;;;6.65;69.48
70521;BME280;58442;52.716;23.560;2023-02-18T04:57:15;99907.41;;;6.63;69.40
70521;BME280;58442;52.716;23.560;2023-02-18T04:59:17;99909.67;;;6.61;69.39
70521;BME280;58442;52.716;23.560;2023-02-18T05:01:18;99912.72;;;6.60;69.50
70521;BME280;58442;52.716;23.560;2023-02-18T05:03:31;99914.30;;;6.61;69.46
70521;BME280;58442;52.716;23.560;2023-02-18T05:05:33;99908.89;;;6.61;69.41
70521;BME280;58442;52.716;23.560;2023-02-18T05:07:35;99899.66;;;6.62;69.39
70521;BME280;58442;52.716;23.560;2023-02-18T05:09:36;99914.73;;;6.63;69.38
70521;BME280;58442;52.716;23.560;2023-02-18T05:11:44;99915.16;;;6.65;69.19
70521;BME280;58442;52.716;23.560;2023-02-18T05:13:47;99895.48;;;6.64;69.05
70521;BME280;58442;52.716;23.560;2023-02-18T05:15:48;99898.96;;;6.65;69.02
70521;BME280;58442;52.716;23.560;2023-02-18T05:17:50;99907.54;;;6.67;68.99
70521;BME280;58442;52.716;23.560;2023-02-18T05:19:58;99903.70;;;6.68;68.97
70521;BME280;58442;52.716;23.560;2023-02-18T05:22:00;99897.17;;;6.69;68.79
70521;BME280;58442;52.716;23.560;2023-02-18T05:24:01;99909.89;;;6.68;68.73
70521;BME280;58442;52.716;23.560;2023-02-18T05:26:03;99917.20;;;6.68;68.74
70521;BME280;58442;52.716;23.560;2023-02-18T05:28:13;99908.66;;;6.66;68.57
70521;BME280;58442;52.716;23.560;2023-02-18T05:30:15;99908.31;;;6.67;68.48
70521;BME280;58442;52.716;23.560;2023-02-18T05:32:16;99905.15;;;6.65;68.43
70521;BME280;58442;52.716;23.560;2023-02-18T05:34:17;99912.46;;;6.65;68.47
70521;BME280;58442;52.716;23.560;2023-02-18T05:36:28;99917.87;;;6.65;68.39
70521;BME280;58442;52.716;23.560;2023-02-18T05:38:29;99918.20;;;6.63;68.30
70521;BME280;58442;52.716;23.560;2023-02-18T05:40:31;99913.59;;;6.64;68.23
70521;BME280;58442;52.716;23.560;2023-02-18T05:42:32;99916.30;;;6.64;68.31
70521;BME280;58442;52.716;23.560;2023-02-18T05:44:43;99922.05;;;6.62;68.17
70521;BME280;58442;52.716;23.560;2023-02-18T05:46:44;99921.26;;;6.62;68.10
70521;BME280;58442;52.716;23.560;2023-02-18T05:48:46;99918.55;;;6.62;68.21
70521;BME280;58442;52.716;23.560;2023-02-18T05:50:47;99925.09;;;6.61;68.17
70521;BME280;58442;52.716;23.560;2023-02-18T05:52:58;99924.30;;;6.60;68.13
70521;BME280;58442;52.716;23.560;2023-02-18T05:54:59;99919.69;;;6.61;67.95
70521;BME280;58442;52.716;23.560;2023-02-18T05:57:01;99925.88;;;6.61;68.03
70521;BME280;58442;52.716;23.560;2023-02-18T05:59:03;99923.18;;;6.61;67.93
70521;BME280;58442;52.716;23.560;2023-02-18T06:01:13;99924.30;;;6.60;67.85
70521;BME280;58442;52.716;23.560;2023-02-18T06:03:14;99938.13;;;6.58;67.42
70521;BME280;58442;52.716;23.560;2023-02-18T06:05:15;99943.52;;;6.58;67.54
70521;BME280;58442;52.716;23.560;2023-02-18T06:07:17;99939.24;;;6.57;67.44
70521;BME280;58442;52.716;23.560;2023-02-18T06:09:28;99934.64;;;6.58;67.36
70521;BME280;58442;52.716;23.560;2023-02-18T06:11:29;99943.52;;;6.58;67.26
70521;BME280;58442;52.716;23.560;2023-02-18T06:13:30;99945.78;;;6.56;67.08
70521;BME280;58442;52.716;23.560;2023-02-18T06:15:32;99934.55;;;6.54;67.06
70521;BME280;58442;52.716;23.560;2023-02-18T06:17:42;99942.98;;;6.53;66.86
70521;BME280;58442;52.716;23.560;2023-02-18T06:19:44;99941.07;;;6.53;66.86
70521;BME280;58442;52.716;23.560;2023-02-18T06:21:46;99932.51;;;6.51;66.70
70521;BME280;58442;52.716;23.560;2023-02-18T06:23:47;99944.44;;;6.50;66.82
70521;BME280;58442;52.716;23.560;2023-02-18T06:25:57;99947.14;;;6.50;66.80
70521;BME280;58442;52.716;23.560;2023-02-18T08:00:51;99979.53;;;5.35;70.13
70521;BME280;58442;52.716;23.560;2023-02-18T08:02:54;99983.47;;;5.17;71.38
70521;BME280;58442;52.716;23.560;2023-02-18T08:04:55;99987.38;;;5.40;71.25
70521;BME280;58442;52.716;23.560;2023-02-18T08:07:05;99996.36;;;5.65;70.65
70521;BME280;58442;52.716;23.560;2023-02-18T08:09:07;99999.34;;;5.85;70.16
70521;BME280;58442;52.716;23.560;2023-02-18T08:11:08;99999.06;;;5.98;69.72
70521;BME280;58442;52.716;23.560;2023-02-18T08:13:09;100006.37;;;6.10;69.20
70521;BME280;58442;52.716;23.560;2023-02-18T08:15:20;100017.53;;;6.21;69.03
70521;BME280;58442;52.716;23.560;2023-02-18T08:17:21;100015.07;;;6.28;68.63
70521;BME280;58442;52.716;23.560;2023-02-18T08:19:23;100025.30;;;6.35;68.49
70521;BME280;58442;52.716;23.560;2023-02-18T08:21:25;100027.45;;;6.41;68.23
70521;BME280;58442;52.716;23.560;2023-02-18T08:25:23;100017.32;;;6.87;66.53
70521;BME280;58442;52.716;23.560;2023-02-18T08:27:24;100043.66;;;6.53;67.11
70521;BME280;58442;52.716;23.560;2023-02-18T08:29:25;100025.20;;;6.55;67.02
70521;BME280;58442;52.716;23.560;2023-02-18T08:31:28;100024.52;;;6.58;66.61
70521;BME280;58442;52.716;23.560;2023-02-18T08:33:31;100024.98;;;6.61;66.77
70521;BME280;58442;52.716;23.560;2023-02-18T08:35:33;100039.27;;;6.61;66.47
70521;BME280;58442;52.716;23.560;2023-02-18T08:37:34;100029.59;;;6.60;66.60
70521;BME280;58442;52.716;23.560;2023-02-18T08:39:36;100032.30;;;6.60;66.57
70521;BME280;58442;52.716;23.560;2023-02-18T08:41:38;100040.39;;;6.60;66.35
70521;BME280;58442;52.716;23.560;2023-02-18T08:43:39;100077.41;;;6.60;66.14
70521;BME280;58442;52.716;23.560;2023-02-18T08:45:49;100038.02;;;6.58;65.94
70521;BME280;58442;52.716;23.560;2023-02-18T08:47:51;100056.13;;;6.58;65.84
70521;BME280;58442;52.716;23.560;2023-02-18T08:49:53;100043.41;;;6.58;65.85
70521;BME280;58442;52.716;23.560;2023-02-18T08:51:54;100051.51;;;6.58;65.99
70521;BME280;58442;52.716;23.560;2023-02-18T08:54:04;100051.98;;;6.61;65.92
70521;BME280;58442;52.716;23.560;2023-02-18T08:56:08;100053.89;;;6.60;65.65
70521;BME280;58442;52.716;23.560;2023-02-18T08:58:10;100049.29;;;6.61;65.55
70521;BME280;58442;52.716;23.560;2023-02-18T09:00:13;100054.68;;;6.61;65.61
70521;BME280;58442;52.716;23.560;2023-02-18T09:02:19;100051.63;;;6.62;65.51
70521;BME280;58442;52.716;23.560;2023-02-18T09:04:20;100052.43;;;6.63;65.39
70521;BME280;58442;52.716;23.560;2023-02-18T09:06:23;100052.43;;;6.63;65.48
70521;BME280;58442;52.716;23.560;2023-02-18T09:08:25;100059.39;;;6.64;65.39
70521;BME280;58442;52.716;23.560;2023-02-18T09:10:34;100042.06;;;6.65;65.37
70521;BME280;58442;52.716;23.560;2023-02-18T09:12:35;100056.04;;;6.67;65.05
70521;BME280;58442;52.716;23.560;2023-02-18T09:14:37;100062.57;;;6.66;65.10
70521;BME280;58442;52.716;23.560;2023-02-18T09:16:39;100054.46;;;6.66;64.97
70521;BME280;58442;52.716;23.560;2023-02-18T09:18:51;100059.53;;;6.67;64.96
70521;BME280;58442;52.716;23.560;2023-02-18T09:20:55;100054.91;;;6.68;64.77
70521;BME280;58442;52.716;23.560;2023-02-18T09:22:57;100053.43;;;6.70;64.85
70521;BME280;58442;52.716;23.560;2023-02-18T09:25:03;100053.09;;;6.72;64.69
70521;BME280;58442;52.716;23.560;2023-02-18T09:27:06;100052.77;;;6.73;64.67
70521;BME280;58442;52.716;23.560;2023-02-18T09:29:08;100060.53;;;6.75;64.63
70521;BME280;58442;52.716;23.560;2023-02-18T09:31:12;100066.37;;;6.77;64.54
70521;BME280;58442;52.716;23.560;2023-02-18T09:33:16;100064.59;;;6.81;64.50
70521;BME280;58442;52.716;23.560;2023-02-18T09:35:21;100055.80;;;6.84;64.47
70521;BME280;58442;52.716;23.560;2023-02-18T09:37:23;100083.24;;;6.86;64.33
70521;BME280;58442;52.716;23.560;2023-02-18T09:39:24;100072.91;;;6.88;64.29
70521;BME280;58442;52.716;23.560;2023-02-18T09:43:41;100083.71;;;6.88;64.13
70521;BME280;58442;52.716;23.560;2023-02-18T09:45:45;100076.05;;;6.90;64.06
70521;BME280;58442;52.716;23.560;2023-02-18T09:47:47;100079.20;;;6.92;64.01
70521;BME280;58442;52.716;23.560;2023-02-18T09:49:59;100093.18;;;6.94;63.98
70521;BME280;58442;52.716;23.560;2023-02-18T09:52:19;100083.59;;;6.97;64.00
70521;BME280;58442;52.716;23.560;2023-02-18T09:54:17;100090.69;;;7.01;63.84
70521;BME280;58442;52.716;23.560;2023-02-18T09:56:28;100080.76;;;7.05;63.59
70521;BME280;58442;52.716;23.560;2023-02-18T09:58:32;100085.84;;;7.07;63.52
70521;BME280;58442;52.716;23.560;2023-02-18T10:00:38;100082.80;;;7.08;63.59
70521;BME280;58442;52.716;23.560;2023-02-18T10:02:45;100087.08;;;7.09;63.61
70521;BME280;58442;52.716;23.560;2023-02-18T10:04:57;100087.08;;;7.09;63.46
70521;BME280;58442;52.716;23.560;2023-02-18T10:06:58;100084.71;;;7.08;63.49
70521;BME280;58442;52.716;23.560;2023-02-18T10:11:23;100096.75;;;7.10;63.19
70521;BME280;58442;52.716;23.560;2023-02-18T10:13:30;100087.52;;;7.11;63.27
70521;BME280;58442;52.716;23.560;2023-02-18T10:15:33;100092.57;;;7.13;63.23
70521;BME280;58442;52.716;23.560;2023-02-18T10:17:36;100100.37;;;7.15;63.21
70521;BME280;58442;52.716;23.560;2023-02-18T10:19:39;100095.74;;;7.15;63.12
70521;BME280;58442;52.716;23.560;2023-02-18T10:21:41;100096.52;;;7.16;63.13
70521;BME280;58442;52.716;23.560;2023-02-18T10:26:13;100095.74;;;7.15;63.20
70521;BME280;58442;52.716;23.560;2023-02-18T10:28:19;100099.67;;;7.18;63.20
70521;BME280;58442;52.716;23.560;2023-02-18T10:30:39;100097.41;;;7.20;62.99
70521;BME280;58442;52.716;23.560;2023-02-18T10:32:36;100092.47;;;7.22;63.02
70521;BME280;58442;52.716;23.560;2023-02-18T10:34:47;100103.28;;;7.22;63.10
70521;BME280;58442;52.716;23.560;2023-02-18T10:37:00;100098.66;;;7.22;63.07
70521;BME280;58442;52.716;23.560;2023-02-18T10:39:22;100085.93;;;7.23;62.99
70521;BME280;58442;52.716;23.560;2023-02-18T10:46:21;100101.45;;;7.26;62.80
70521;BME280;58442;52.716;23.560;2023-02-18T10:50:42;100110.81;;;7.28;62.67
70521;BME280;58442;52.716;23.560;2023-02-18T10:52:47;100096.95;;;7.30;62.60
70521;BME280;58442;52.716;23.560;2023-02-18T10:55:01;100094.69;;;7.32;62.53
70521;BME280;58442;52.716;23.560;2023-02-18T10:57:13;100105.63;;;7.35;62.42
70521;BME280;58442;52.716;23.560;2023-02-18T10:59:33;100124.20;;;7.37;62.37
70521;BME280;58442;52.716;23.560;2023-02-18T11:01:35;100111.12;;;7.39;62.25
70521;BME280;58442;52.716;23.560;2023-02-18T11:03:43;100120.92;;;7.44;62.22
70521;BME280;58442;52.716;23.560;2023-02-18T11:05:47;100119.10;;;7.48;62.10
70521;BME280;58442;52.716;23.560;2023-02-18T11:07:51;100117.65;;;7.50;62.09
70521;BME280;58442;52.716;23.560;2023-02-18T11:12:32;100114.59;;;7.52;61.76
70521;BME280;58442;52.716;23.560;2023-02-18T11:16:45;100118.08;;;7.52;61.72
70521;BME280;58442;52.716;23.560;2023-02-18T11:18:49;100117.73;;;7.54;61.70
70521;BME280;58442;52.716;23.560;2023-02-18T11:21:05;100121.70;;;7.56;61.71
70521;BME280;58442;52.716;23.560;2023-02-18T11:23:16;100129.45;;;7.58;61.69
70521;BME280;58442;52.716;23.560;2023-02-18T11:25:21;100132.25;;;7.61;61.40
70521;BME280;58442;52.716;23.560;2023-02-18T11:29:34;100133.50;;;7.64;61.09
70521;BME280;58442;52.716;23.560;2023-02-18T11:31:40;100143.97;;;7.65;61.20
70521;BME280;58442;52.716;23.560;2023-02-18T11:33:51;100130.44;;;7.65;61.02
70521;BME280;58442;52.716;23.560;2023-02-18T11:35:56;100117.70;;;7.66;60.62
70521;BME280;58442;52.716;23.560;2023-02-18T11:37:59;100133.84;;;7.62;60.57
70521;BME280;58442;52.716;23.560;2023-02-18T11:40:03;100136.42;;;7.59;60.71
70521;BME280;58442;52.716;23.560;2023-02-18T11:42:06;100132.04;;;7.54;60.69
70521;BME280;58442;52.716;23.560;2023-02-18T11:46:22;100130.59;;;7.45;60.63
70521;BME280;58442;52.716;23.560;2023-02-18T11:48:24;100140.20;;;7.42;60.71
70521;BME280;58442;52.716;23.560;2023-02-18T11:50:30;100135.89;;;7.41;60.63
70521;BME280;58442;52.716;23.560;2023-02-18T11:52:35;100134.00;;;7.42;60.68
70521;BME280;58442;52.716;23.560;2023-02-18T11:54:37;100134.45;;;7.44;60.63
70521;BME280;58442;52.716;23.560;2023-02-18T11:56:38;100134.54;;;7.47;60.63
70521;BME280;58442;52.716;23.560;2023-02-18T11:58:46;100122.27;;;7.50;60.59
70521;BME280;58442;52.716;23.560;2023-02-18T12:00:49;100128.90;;;7.52;60.48
70521;BME280;58442;52.716;23.560;2023-02-18T12:02:57;100120.12;;;7.55;60.45
70521;BME280;58442;52.716;23.560;2023-02-18T12:07:22;100138.80;;;7.60;60.18
70521;BME280;58442;52.716;23.560;2023-02-18T12:09:36;100133.84;;;7.62;60.28
70521;BME280;58442;52.716;23.560;2023-02-18T12:11:47;100126.60;;;7.66;60.31
70521;BME280;58442;52.716;23.560;2023-02-18T12:13:55;100130.30;;;7.74;60.21
70521;BME280;58442;52.716;23.560;2023-02-18T12:16:08;100139.52;;;7.85;60.03
70521;BME280;58442;52.716;23.560;2023-02-18T12:18:20;100140.51;;;7.93;59.80
70521;BME280;58442;52.716;23.560;2023-02-18T12:22:45;100148.93;;;8.04;59.38
70521;BME280;58442;52.716;23.560;2023-02-18T12:29:39;100149.76;;;8.20;58.94
70521;BME280;58442;52.716;23.560;2023-02-18T12:36:42;100144.97;;;8.29;58.87
70521;BME280;58442;52.716;23.560;2023-02-18T12:53:10;100156.73;;;7.93;58.60
70521;BME280;58442;52.716;23.560;2023-02-18T13:00:17;100171.87;;;7.82;58.91
70521;BME280;58442;52.716;23.560;2023-02-18T13:12:06;100157.82;;;7.76;58.54
70521;BME280;58442;52.716;23.560;2023-02-18T13:14:22;100154.32;;;7.76;58.77
70521;BME280;58442;52.716;23.560;2023-02-18T13:16:35;100163.66;;;7.78;58.83
70521;BME280;58442;52.716;23.560;2023-02-18T13:18:43;100170.76;;;7.83;58.71
70521;BME280;58442;52.716;23.560;2023-02-18T13:20:56;100164.22;;;7.84;58.81
70521;BME280;58442;52.716;23.560;2023-02-18T13:22:59;100151.55;;;7.88;58.77
70521;BME280;58442;52.716;23.560;2023-02-18T13:25:01;100159.80;;;7.91;58.68
70521;BME280;58442;52.716;23.560;2023-02-18T13:27:23;100154.47;;;7.95;58.73
70521;BME280;58442;52.716;23.560;2023-02-18T13:29:43;100153.69;;;7.94;58.61
70521;BME280;58442;52.716;23.560;2023-02-18T13:39:25;100164.19;;;7.96;58.74
70521;BME280;58442;52.716;23.560;2023-02-18T13:41:21;100149.17;;;7.99;58.63
70521;BME280;58442;52.716;23.560;2023-02-18T13:43:29;100161.56;;;8.00;58.32
70521;BME280;58442;52.716;23.560;2023-02-18T13:45:32;100150.74;;;8.00;58.13
70521;BME280;58442;52.716;23.560;2023-02-18T13:47:43;100147.61;;;7.98;58.36
70521;BME280;58442;52.716;23.560;2023-02-18T13:49:45;100168.46;;;7.97;58.37
70521;BME280;58442;52.716;23.560;2023-02-18T13:51:59;100141.40;;;7.97;58.37
70521;BME280;58442;52.716;23.560;2023-02-18T13:56:22;100148.62;;;7.93;58.22
70521;BME280;58442;52.716;23.560;2023-02-18T14:00:47;100148.06;;;7.87;58.27
70521;BME280;58442;52.716;23.560;2023-02-18T14:02:57;100152.61;;;7.83;58.29
70521;BME280;58442;52.716;23.560;2023-02-18T14:05:14;100157.82;;;7.76;58.13
70521;BME280;58442;52.716;23.560;2023-02-18T14:09:48;100147.59;;;7.57;58.23
70521;BME280;58442;52.716;23.560;2023-02-18T14:12:14;100150.18;;;7.54;58.21
70521;BME280;58442;52.716;23.560;2023-02-18T14:16:18;100158.08;;;7.47;58.38
70521;BME280;58442;52.716;23.560;2023-02-18T14:22:51;100155.06;;;7.36;58.44
70521;BME280;58442;52.716;23.560;2023-02-18T14:27:14;100155.29;;;7.31;58.45
70521;BME280;58442;52.716;23.560;2023-02-18T14:38:25;100163.05;;;7.20;58.65
70521;BME280;58442;52.716;23.560;2023-02-18T14:45:34;100171.28;;;7.11;58.76
70521;BME280;58442;52.716;23.560;2023-02-18T14:50:09;100180.98;;;7.00;58.87
70521;BME280;58442;52.716;23.560;2023-02-18T14:54:25;100177.57;;;6.91;59.13
70521;BME280;58442;52.716;23.560;2023-02-18T14:56:29;100173.85;;;6.83;59.25
70521;BME280;58442;52.716;23.560;2023-02-18T14:58:35;100177.44;;;6.75;59.42
70521;BME280;58442;52.716;23.560;2023-02-18T15:00:42;100184.97;;;6.70;59.55
70521;BME280;58442;52.716;23.560;2023-02-18T15:02:48;100177.07;;;6.65;59.68
70521;BME280;58442;52.716;23.560;2023-02-18T15:04:50;100168.07;;;6.61;59.80
70521;BME280;58442;52.716;23.560;2023-02-18T15:07:01;100179.52;;;6.57;59.94
70521;BME280;58442;52.716;23.560;2023-02-18T15:09:19;100154.00;;;6.55;60.04
70521;BME280;58442;52.716;23.560;2023-02-18T15:11:40;100160.87;;;6.52;60.11
70521;BME280;58442;52.716;23.560;2023-02-18T15:13:52;100164.55;;;6.48;60.25
70521;BME280;58442;52.716;23.560;2023-02-18T15:15:58;100159.36;;;6.43;60.35
70521;BME280;58442;52.716;23.560;2023-02-18T15:18:02;100152.73;;;6.40;60.45
70521;BME280;58442;52.716;23.560;2023-02-18T15:20:06;100157.65;;;6.38;60.53
70521;BME280;58442;52.716;23.560;2023-02-18T15:22:16;100155.63;;;6.35;60.55
70521;BME280;58442;52.716;23.560;2023-02-18T15:24:34;100149.01;;;6.33;60.66